PUA010 SUCA-SAZM
Flight info
| Callsign | PUA010 |
|---|---|
| Flight time | N/A |
| Altitude | 7000 |
| Route | PTA W59 TEDAR DCT MUDNO MUDNO1U |
| Aircraft | DA62/L-SDFGRY/C |
Departure
| Time | 2026-05-04 03:14 |
|---|---|
| Airport | Colonia Laguna de Los Patos International Airport (SUCA) |
Arrival
| Time | N/A |
|---|---|
| Airport | Ástor Piazzola International Airport (SAZM) |
| Time | Latitude | Longitude | Altitude | Speed | Heading |
|---|---|---|---|---|---|
| 2026-05-04 03:00 | -34.45372 | -57.77677 | 70 ft | 0 kts | 118° |
| 2026-05-04 03:13 | -34.45392 | -57.77631 | 69 ft | 28 kts | 114° |
| 2026-05-04 03:13 | -34.45540 | -57.77261 | 57 ft | 80 kts | 120° |
| 2026-05-04 03:13 | -34.45936 | -57.76539 | 173 ft | 117 kts | 131° |
| 2026-05-04 03:13 | -34.46654 | -57.76099 | 494 ft | 125 kts | 182° |
| 2026-05-04 03:14 | -34.47522 | -57.76315 | 839 ft | 131 kts | 201° |
| 2026-05-04 03:14 | -34.48412 | -57.76667 | 1199 ft | 137 kts | 204° |
| 2026-05-04 03:14 | -34.49321 | -57.77027 | 1596 ft | 138 kts | 206° |
| 2026-05-04 03:14 | -34.50238 | -57.77394 | 1945 ft | 145 kts | 208° |
| 2026-05-04 03:15 | -34.51292 | -57.77857 | 1927 ft | 170 kts | 207° |
| 2026-05-04 03:15 | -34.52419 | -57.78372 | 2089 ft | 175 kts | 208° |
| 2026-05-04 03:15 | -34.53570 | -57.78907 | 2276 ft | 176 kts | 208° |
| 2026-05-04 03:15 | -34.54700 | -57.79436 | 2481 ft | 177 kts | 209° |
| 2026-05-04 03:16 | -34.55893 | -57.79839 | 2667 ft | 181 kts | 195° |
| 2026-05-04 03:16 | -34.57142 | -57.80029 | 2865 ft | 181 kts | 192° |
| 2026-05-04 03:16 | -34.58388 | -57.80210 | 3069 ft | 179 kts | 194° |
| 2026-05-04 03:16 | -34.59607 | -57.80465 | 3256 ft | 178 kts | 197° |
| 2026-05-04 03:17 | -34.60824 | -57.80775 | 3441 ft | 179 kts | 198° |
| 2026-05-04 03:17 | -34.62040 | -57.81080 | 3652 ft | 178 kts | 197° |
| 2026-05-04 03:17 | -34.63250 | -57.81374 | 3855 ft | 177 kts | 197° |
| 2026-05-04 03:17 | -34.64448 | -57.81667 | 4091 ft | 174 kts | 197° |
| 2026-05-04 03:18 | -34.65605 | -57.81952 | 4364 ft | 169 kts | 197° |
| 2026-05-04 03:18 | -34.66736 | -57.82227 | 4717 ft | 162 kts | 198° |
| 2026-05-04 03:18 | -34.67822 | -57.82494 | 5104 ft | 155 kts | 198° |
| 2026-05-04 03:18 | -34.68853 | -57.82746 | 5536 ft | 147 kts | 199° |
| 2026-05-04 03:19 | -34.69818 | -57.82981 | 6020 ft | 137 kts | 199° |
| 2026-05-04 03:19 | -34.70724 | -57.83205 | 6509 ft | 129 kts | 200° |
| 2026-05-04 03:19 | -34.71583 | -57.83416 | 6961 ft | 124 kts | 200° |
| 2026-05-04 03:19 | -34.72507 | -57.83659 | 7050 ft | 150 kts | 200° |
| 2026-05-04 03:20 | -34.73599 | -57.83935 | 7059 ft | 170 kts | 198° |
| 2026-05-04 03:20 | -34.74783 | -57.84217 | 7063 ft | 181 kts | 197° |
| 2026-05-04 03:20 | -34.76042 | -57.84518 | 7057 ft | 187 kts | 197° |
| 2026-05-04 03:20 | -34.77331 | -57.84833 | 7057 ft | 190 kts | 197° |
| 2026-05-04 03:21 | -34.78636 | -57.85155 | 7053 ft | 192 kts | 197° |
| 2026-05-04 03:21 | -34.79948 | -57.85477 | 7055 ft | 193 kts | 197° |
| 2026-05-04 03:21 | -34.81263 | -57.85799 | 7057 ft | 193 kts | 197° |
| 2026-05-04 03:21 | -34.82580 | -57.86126 | 7057 ft | 193 kts | 197° |
| 2026-05-04 03:22 | -34.83895 | -57.86451 | 7054 ft | 193 kts | 197° |
| 2026-05-04 03:22 | -34.85195 | -57.86771 | 7056 ft | 193 kts | 198° |
| 2026-05-04 03:22 | -34.86516 | -57.87096 | 7058 ft | 194 kts | 198° |
| 2026-05-04 03:22 | -34.87837 | -57.87425 | 7058 ft | 194 kts | 197° |
| 2026-05-04 03:23 | -34.89160 | -57.87750 | 7057 ft | 194 kts | 197° |
| 2026-05-04 03:23 | -34.90483 | -57.88075 | 7057 ft | 194 kts | 198° |
| 2026-05-04 03:23 | -34.91805 | -57.88402 | 7056 ft | 194 kts | 198° |
| 2026-05-04 03:23 | -34.93124 | -57.88730 | 7057 ft | 193 kts | 198° |
| 2026-05-04 03:24 | -34.94442 | -57.89056 | 7055 ft | 193 kts | 198° |
| 2026-05-04 03:24 | -34.95742 | -57.89375 | 7059 ft | 193 kts | 198° |
| 2026-05-04 03:24 | -34.97064 | -57.89678 | 7057 ft | 195 kts | 192° |
| 2026-05-04 03:24 | -34.98434 | -57.89500 | 7060 ft | 202 kts | 171° |
| 2026-05-04 03:25 | -34.99785 | -57.88993 | 7055 ft | 204 kts | 167° |
| 2026-05-04 03:25 | -35.01135 | -57.88473 | 7056 ft | 204 kts | 168° |
| 2026-05-04 03:25 | -35.02491 | -57.87967 | 7054 ft | 204 kts | 168° |
| 2026-05-04 03:25 | -35.03848 | -57.87454 | 7056 ft | 204 kts | 168° |
| 2026-05-04 03:26 | -35.05203 | -57.86935 | 7060 ft | 204 kts | 168° |
| 2026-05-04 03:26 | -35.06560 | -57.86416 | 7056 ft | 204 kts | 168° |
| 2026-05-04 03:26 | -35.07899 | -57.85908 | 7056 ft | 204 kts | 168° |
| 2026-05-04 03:26 | -35.09256 | -57.85392 | 7056 ft | 204 kts | 168° |
| 2026-05-04 03:27 | -35.10615 | -57.84873 | 7054 ft | 204 kts | 168° |
| 2026-05-04 03:27 | -35.11973 | -57.84354 | 7054 ft | 204 kts | 168° |
| 2026-05-04 03:27 | -35.13331 | -57.83836 | 7049 ft | 205 kts | 168° |
| 2026-05-04 03:27 | -35.14689 | -57.83319 | 7051 ft | 204 kts | 168° |
| 2026-05-04 03:28 | -35.16046 | -57.82800 | 7050 ft | 204 kts | 168° |
| 2026-05-04 03:28 | -35.17404 | -57.82281 | 7051 ft | 204 kts | 168° |
| 2026-05-04 03:28 | -35.18762 | -57.81762 | 7048 ft | 204 kts | 168° |
| 2026-05-04 03:28 | -35.20102 | -57.81251 | 7048 ft | 204 kts | 168° |
| 2026-05-04 03:29 | -35.21458 | -57.80733 | 7046 ft | 204 kts | 168° |
| 2026-05-04 03:29 | -35.22816 | -57.80212 | 7045 ft | 205 kts | 168° |
| 2026-05-04 03:29 | -35.24175 | -57.79692 | 7046 ft | 205 kts | 168° |
| 2026-05-04 03:29 | -35.25533 | -57.79173 | 7042 ft | 205 kts | 168° |
| 2026-05-04 03:30 | -35.26893 | -57.78653 | 7040 ft | 205 kts | 168° |
| 2026-05-04 03:30 | -35.28251 | -57.78131 | 7040 ft | 205 kts | 168° |
| 2026-05-04 03:30 | -35.29611 | -57.77610 | 7040 ft | 205 kts | 169° |
| 2026-05-04 03:30 | -35.30953 | -57.77097 | 7040 ft | 205 kts | 169° |
| 2026-05-04 03:31 | -35.32313 | -57.76576 | 7036 ft | 205 kts | 169° |
| 2026-05-04 03:31 | -35.33673 | -57.76054 | 7042 ft | 205 kts | 169° |
| 2026-05-04 03:31 | -35.35032 | -57.75531 | 7038 ft | 205 kts | 169° |
| 2026-05-04 03:31 | -35.36391 | -57.75010 | 7035 ft | 205 kts | 169° |
| 2026-05-04 03:32 | -35.37752 | -57.74489 | 7036 ft | 205 kts | 169° |
| 2026-05-04 03:32 | -35.39109 | -57.73967 | 7038 ft | 205 kts | 169° |
| 2026-05-04 03:32 | -35.40466 | -57.73444 | 7039 ft | 204 kts | 169° |
| 2026-05-04 03:32 | -35.41824 | -57.72923 | 7038 ft | 204 kts | 169° |
| 2026-05-04 03:33 | -35.43180 | -57.72402 | 7036 ft | 204 kts | 169° |
| 2026-05-04 03:33 | -35.44519 | -57.71887 | 7039 ft | 204 kts | 169° |
| 2026-05-04 03:33 | -35.45875 | -57.71366 | 7037 ft | 204 kts | 169° |
| 2026-05-04 03:33 | -35.47233 | -57.70853 | 7038 ft | 204 kts | 169° |
| 2026-05-04 03:34 | -35.48590 | -57.70343 | 7035 ft | 204 kts | 169° |
| 2026-05-04 03:34 | -35.49946 | -57.69828 | 7038 ft | 204 kts | 169° |
| 2026-05-04 03:34 | -35.51302 | -57.69311 | 7037 ft | 204 kts | 169° |
| 2026-05-04 03:34 | -35.52654 | -57.68799 | 7035 ft | 204 kts | 169° |
| 2026-05-04 03:35 | -35.54015 | -57.68284 | 7036 ft | 204 kts | 170° |
| 2026-05-04 03:35 | -35.55369 | -57.67768 | 7035 ft | 204 kts | 170° |
| 2026-05-04 03:35 | -35.56725 | -57.67252 | 7037 ft | 204 kts | 170° |
| 2026-05-04 03:35 | -35.58060 | -57.66746 | 7040 ft | 204 kts | 170° |
| 2026-05-04 03:36 | -35.59415 | -57.66231 | 7037 ft | 204 kts | 170° |
| 2026-05-04 03:36 | -35.60769 | -57.65715 | 7040 ft | 204 kts | 170° |
| 2026-05-04 03:36 | -35.62123 | -57.65200 | 7038 ft | 204 kts | 170° |
| 2026-05-04 03:36 | -35.63476 | -57.64685 | 7039 ft | 204 kts | 170° |
| 2026-05-04 03:37 | -35.64830 | -57.64171 | 7035 ft | 204 kts | 170° |
| 2026-05-04 03:37 | -35.66183 | -57.63655 | 7040 ft | 204 kts | 170° |
| 2026-05-04 03:37 | -35.67536 | -57.63138 | 7036 ft | 204 kts | 170° |
| 2026-05-04 03:37 | -35.68890 | -57.62623 | 7039 ft | 204 kts | 170° |
| 2026-05-04 03:38 | -35.70243 | -57.62108 | 7037 ft | 204 kts | 170° |
| 2026-05-04 03:38 | -35.71596 | -57.61591 | 7038 ft | 204 kts | 170° |
| 2026-05-04 03:38 | -35.72931 | -57.61081 | 7034 ft | 204 kts | 170° |
| 2026-05-04 03:38 | -35.74286 | -57.60564 | 7034 ft | 204 kts | 170° |
| 2026-05-04 03:39 | -35.75638 | -57.60048 | 7036 ft | 204 kts | 170° |
| 2026-05-04 03:39 | -35.76992 | -57.59531 | 7034 ft | 204 kts | 170° |
| 2026-05-04 03:39 | -35.78344 | -57.59014 | 7035 ft | 204 kts | 170° |
| 2026-05-04 03:39 | -35.79696 | -57.58498 | 7036 ft | 204 kts | 171° |
| 2026-05-04 03:40 | -35.81049 | -57.57981 | 7034 ft | 204 kts | 170° |
| 2026-05-04 03:40 | -35.82403 | -57.57463 | 7036 ft | 204 kts | 170° |
| 2026-05-04 03:40 | -35.83736 | -57.56952 | 7036 ft | 203 kts | 170° |
| 2026-05-04 03:40 | -35.85088 | -57.56435 | 7034 ft | 204 kts | 170° |
| 2026-05-04 03:41 | -35.86440 | -57.55917 | 7036 ft | 204 kts | 170° |
| 2026-05-04 03:41 | -35.87793 | -57.55399 | 7033 ft | 204 kts | 170° |
| 2026-05-04 03:41 | -35.89145 | -57.54880 | 7034 ft | 204 kts | 170° |
| 2026-05-04 03:41 | -35.90497 | -57.54362 | 7034 ft | 204 kts | 171° |
| 2026-05-04 03:42 | -35.91850 | -57.53844 | 7035 ft | 204 kts | 171° |
| 2026-05-04 03:42 | -35.93204 | -57.53325 | 7033 ft | 204 kts | 171° |
| 2026-05-04 03:42 | -35.94557 | -57.52804 | 7031 ft | 204 kts | 171° |
| 2026-05-04 03:42 | -35.95912 | -57.52284 | 7038 ft | 204 kts | 171° |
| 2026-05-04 03:43 | -35.97269 | -57.51764 | 7035 ft | 204 kts | 171° |
| 2026-05-04 03:43 | -35.98625 | -57.51243 | 7035 ft | 204 kts | 171° |
| 2026-05-04 03:43 | -35.99982 | -57.50721 | 7034 ft | 204 kts | 171° |
| 2026-05-04 03:43 | -36.01340 | -57.50200 | 7036 ft | 204 kts | 171° |
| 2026-05-04 03:44 | -36.02680 | -57.49684 | 7035 ft | 205 kts | 171° |
| 2026-05-04 03:44 | -36.04040 | -57.49161 | 7036 ft | 205 kts | 171° |
| 2026-05-04 03:44 | -36.05398 | -57.48638 | 7034 ft | 205 kts | 171° |
| 2026-05-04 03:44 | -36.06758 | -57.48115 | 7032 ft | 205 kts | 171° |
| 2026-05-04 03:45 | -36.08115 | -57.47591 | 7031 ft | 205 kts | 171° |
| 2026-05-04 03:45 | -36.09474 | -57.47068 | 7035 ft | 204 kts | 171° |
| 2026-05-04 03:45 | -36.10831 | -57.46545 | 7031 ft | 204 kts | 171° |
| 2026-05-04 03:45 | -36.12189 | -57.46021 | 7032 ft | 204 kts | 171° |
| 2026-05-04 03:46 | -36.13546 | -57.45497 | 7034 ft | 204 kts | 171° |
| 2026-05-04 03:46 | -36.14903 | -57.44975 | 7031 ft | 204 kts | 171° |
| 2026-05-04 03:46 | -36.16260 | -57.44452 | 7035 ft | 204 kts | 171° |
| 2026-05-04 03:46 | -36.17617 | -57.43927 | 7028 ft | 204 kts | 171° |
| 2026-05-04 03:47 | -36.18955 | -57.43409 | 7030 ft | 204 kts | 171° |
| 2026-05-04 03:47 | -36.20315 | -57.42885 | 7028 ft | 204 kts | 171° |